Time;durP1;ratioP1;P1;durP2;ratioP2;P2;SDS_P1;SDS_P2;PMS_P1;PMS_P2;Temp;Humidity;BMP_temperature;BMP_pressure;BME280_temperature;BME280_humidity;BME280_pressure;Samples;Min_cycle;Max_cycle;Signal;HPM_P1;HPM_P2
2024/01/25 00:00:48;;;;;;;0.63;0.63;;;;;;;11.39;51.48;101049.59;5038902;28;20646;-46
2024/01/25 00:03:14;;;;;;;11.68;3.15;;;;;;;11.43;52.44;101021.28;5036477;28;20052;-43
2024/01/25 00:05:39;;;;;;;9.82;4.35;;;;;;;11.25;51.18;101053.03;5035145;28;20039;-44
2024/01/25 00:08:04;;;;;;;8.95;8.27;;;;;;;11.49;51.63;101023.59;5035064;28;20044;-47
2024/01/25 00:10:30;;;;;;;7.68;7.22;;;;;;;11.52;51.32;101046.25;5039124;28;20039;-43
2024/01/25 00:12:55;;;;;;;10.63;2.23;;;;;;;11.38;50.91;101057.59;5040725;28;20879;-45
2024/01/25 00:15:20;;;;;;;5.25;3.38;;;;;;;11.45;51.41;101064.22;5038452;28;20279;-46
2024/01/25 00:17:45;;;;;;;4.65;4.30;;;;;;;11.52;50.31;101044.50;5036085;28;20047;-46
2024/01/25 00:20:11;;;;;;;8.93;8.07;;;;;;;11.49;50.75;101055.22;5035711;28;20716;-45
2024/01/25 00:22:37;;;;;;;10.63;9.25;;;;;;;11.43;50.55;101064.31;5036485;28;20279;-47
2024/01/25 00:25:03;;;;;;;6.40;5.18;;;;;;;11.49;50.07;101055.22;5033868;28;20037;-45
2024/01/25 00:27:28;;;;;;;7.40;6.82;;;;;;;11.45;49.51;101056.31;5020862;28;20037;-47
2024/01/25 00:29:53;;;;;;;4.03;3.63;;;;;;;11.54;49.32;101060.22;5036993;28;20151;-45
2024/01/25 00:32:19;;;;;;;10.20;9.35;;;;;;;11.61;50.49;101073.88;5021958;28;20299;-47
2024/01/25 00:34:45;;;;;;;5.05;4.50;;;;;;;11.62;49.40;101065.03;5038869;28;20028;-45
2024/01/25 00:37:10;;;;;;;2.63;1.58;;;;;;;11.59;50.83;101085.38;5041608;28;20037;-44
2024/01/25 00:39:36;;;;;;;6.00;2.92;;;;;;;11.58;50.33;101074.91;5036581;28;20483;-46
2024/01/25 00:42:05;;;;;;;0.93;0.93;;;;;;;11.59;49.35;101074.81;5036312;28;20036;-46
2024/01/25 00:44:31;;;;;;;6.18;3.42;;;;;;;11.59;50.03;101072.19;5034970;28;20040;-44
2024/01/25 00:46:56;;;;;;;11.60;5.15;;;;;;;11.46;49.32;101081.72;5036462;28;20025;-46
2024/01/25 00:49:22;;;;;;;5.57;5.07;;;;;;;11.53;49.43;101077.81;5032886;28;20506;-45
2024/01/25 00:51:48;;;;;;;16.92;7.00;;;;;;;11.54;50.27;101111.16;5036891;28;20017;-47
2024/01/25 00:54:14;;;;;;;13.52;5.53;;;;;;;11.58;49.76;101094.19;5029880;28;20934;-46
2024/01/25 00:56:40;;;;;;;11.27;8.05;;;;;;;11.43;48.81;101097.69;5033690;28;20699;-46
2024/01/25 00:59:05;;;;;;;22.65;4.07;;;;;;;11.47;49.03;101106.31;5034951;28;20037;-47
2024/01/25 01:01:31;;;;;;;5.15;3.15;;;;;;;11.64;49.89;101094.81;5020291;28;20851;-45
2024/01/25 01:03:58;;;;;;;5.60;4.10;;;;;;;11.39;49.72;101185.78;5036451;28;20032;-45
2024/01/25 01:06:24;;;;;;;2.20;1.52;;;;;;;11.50;49.43;101093.81;5034917;28;20038;-44
2024/01/25 01:08:49;;;;;;;4.85;4.07;;;;;;;11.52;49.24;101097.19;5038997;28;20625;-48
2024/01/25 01:11:15;;;;;;;1.80;0.90;;;;;;;11.50;49.29;101099.06;5033932;28;20029;-46
2024/01/25 01:13:40;;;;;;;1.00;0.65;;;;;;;11.55;49.25;101128.66;5034104;28;20048;-46
2024/01/25 01:16:05;;;;;;;0.20;0.20;;;;;;;11.67;48.99;101106.00;5036695;28;20044;-45
2024/01/25 01:18:30;;;;;;;2.42;1.92;;;;;;;11.68;51.00;101109.53;5035949;28;20302;-46
2024/01/25 01:20:56;;;;;;;2.73;2.50;;;;;;;11.63;49.19;101112.41;5035827;28;20041;-45
2024/01/25 01:23:21;;;;;;;6.27;5.73;;;;;;;11.62;49.50;101113.34;5040372;28;20677;-46
2024/01/25 01:25:46;;;;;;;8.13;7.30;;;;;;;11.71;50.33;101119.91;5041844;28;20302;-43
2024/01/25 01:28:11;;;;;;;8.85;2.53;;;;;;;11.68;50.22;101113.00;5034302;28;20298;-45
2024/01/25 01:30:41;;;;;;;2.65;1.65;;;;;;;11.52;49.33;101127.97;5036443;28;20032;-48
2024/01/25 01:33:06;;;;;;;25.23;4.25;;;;;;;11.56;49.49;101140.03;5031704;28;20044;-46
2024/01/25 01:35:31;;;;;;;15.77;5.07;;;;;;;11.49;51.14;101151.88;5039850;28;20048;-44
2024/01/25 01:37:57;;;;;;;5.53;1.63;;;;;;;11.49;49.26;101136.91;5040334;28;20041;-47
2024/01/25 01:40:22;;;;;;;7.15;2.45;;;;;;;11.42;50.15;101157.47;5035553;28;20283;-44
2024/01/25 01:42:47;;;;;;;2.63;1.43;;;;;;;11.59;51.02;101138.06;5040300;28;20047;-45
2024/01/25 01:45:13;;;;;;;7.37;2.37;;;;;;;11.32;50.02;101158.91;5042749;28;20309;-45
2024/01/25 01:47:39;;;;;;;2.17;2.00;;;;;;;11.37;49.29;101132.31;5040634;28;20382;-43
2024/01/25 01:50:05;;;;;;;6.20;1.63;;;;;;;11.26;48.51;101164.50;5039050;28;21112;-46
2024/01/25 01:52:31;;;;;;;7.68;3.78;;;;;;;11.34;48.99;101151.78;5042226;28;20083;-46
2024/01/25 01:54:57;;;;;;;13.63;2.88;;;;;;;11.40;48.47;101134.78;5043048;28;20029;-46
2024/01/25 01:57:23;;;;;;;0.68;0.63;;;;;;;11.46;48.55;101144.13;5042970;28;20392;-45
2024/01/25 01:59:50;;;;;;;16.73;3.05;;;;;;;11.42;49.13;101124.97;5045368;28;20044;-48
2024/01/25 02:02:15;;;;;;;4.53;1.83;;;;;;;11.46;49.05;101123.88;5040143;28;20033;-44
2024/01/25 02:04:40;;;;;;;4.40;1.02;;;;;;;11.32;48.72;101194.94;5037223;28;20126;-44
2024/01/25 02:07:07;;;;;;;5.30;3.58;;;;;;;11.39;49.98;101118.09;5041274;28;20028;-44
2024/01/25 02:09:34;;;;;;;5.30;3.92;;;;;;;11.52;48.98;101128.81;5038069;28;20094;-45
2024/01/25 02:12:03;;;;;;;0.15;0.15;;;;;;;11.58;49.13;101104.75;5037460;28;20415;-44
2024/01/25 02:14:28;;;;;;;1.95;0.47;;;;;;;11.55;49.51;101149.75;5036642;28;20057;-43
2024/01/25 02:16:54;;;;;;;0.30;0.20;;;;;;;11.48;49.38;101122.03;5043567;28;20064;-45
2024/01/25 02:19:19;;;;;;;14.95;0.93;;;;;;;11.44;50.20;101123.13;5040906;28;20052;-45
2024/01/25 02:21:44;;;;;;;0.47;0.45;;;;;;;11.44;49.88;101125.75;5020692;28;20037;-43
2024/01/25 02:24:09;;;;;;;3.42;3.17;;;;;;;11.46;49.75;101109.88;5034822;28;20446;-46
2024/01/25 02:26:35;;;;;;;3.70;3.50;;;;;;;11.48;50.01;101111.47;5037276;28;21052;-46
2024/01/25 02:29:01;;;;;;;3.00;2.78;;;;;;;11.38;50.26;101123.47;5037978;28;20290;-48
2024/01/25 02:31:26;;;;;;;7.40;6.97;;;;;;;11.51;50.34;101118.34;5040025;28;20056;-44
2024/01/25 02:33:51;;;;;;;4.03;3.70;;;;;;;11.45;50.36;101127.44;5036171;28;20762;-45
2024/01/25 02:36:16;;;;;;;3.10;2.83;;;;;;;11.38;50.83;101147.19;5040549;28;20041;-44
2024/01/25 02:38:42;;;;;;;0.28;0.28;;;;;;;11.47;49.90;101114.22;5038441;28;20287;-44
2024/01/25 02:41:07;;;;;;;1.52;1.05;;;;;;;11.43;50.54;101146.00;5038294;28;20044;-45
2024/01/25 02:43:32;;;;;;;7.33;3.50;;;;;;;11.44;50.46;101116.06;5036553;28;20064;-44
2024/01/25 02:45:57;;;;;;;1.60;0.70;;;;;;;11.49;50.12;101130.78;5040799;28;20727;-42
2024/01/25 02:48:23;;;;;;;8.52;1.35;;;;;;;11.44;50.11;101162.63;5037266;28;20284;-44
2024/01/25 02:50:48;;;;;;;0.10;0.10;;;;;;;11.42;50.05;101125.84;5040064;28;20812;-44
2024/01/25 02:53:13;;;;;;;0.30;0.30;;;;;;;11.52;50.14;101120.91;5044036;28;20039;-44
2024/01/25 02:55:38;;;;;;;1.13;1.03;;;;;;;11.52;50.46;101134.09;5038333;28;20530;-44
2024/01/25 02:58:04;;;;;;;9.33;3.70;;;;;;;11.38;49.69;101142.75;5039640;28;20307;-44
2024/01/25 03:00:29;;;;;;;3.35;3.05;;;;;;;11.43;50.80;101150.41;5036516;28;20290;-45
2024/01/25 03:02:54;;;;;;;1.83;1.70;;;;;;;11.46;50.05;101134.44;5043974;28;20033;-45
2024/01/25 03:05:20;;;;;;;14.85;3.65;;;;;;;11.36;50.15;101154.31;5030218;28;20044;-44
2024/01/25 03:07:45;;;;;;;2.35;1.63;;;;;;;11.42;51.17;101146.06;5035532;28;20028;-44
2024/01/25 03:10:10;;;;;;;0.10;0.10;;;;;;;11.36;50.40;101114.78;5058943;28;20041;-44
2024/01/25 03:12:36;;;;;;;1.02;1.02;;;;;;;11.33;50.31;101162.38;5041149;28;20125;-44
2024/01/25 03:15:01;;;;;;;3.90;3.60;;;;;;;11.39;49.87;101148.88;5039449;28;20582;-45
2024/01/25 03:17:26;;;;;;;3.08;2.85;;;;;;;11.37;50.25;101183.19;5037797;28;20327;-44
2024/01/25 03:19:52;;;;;;;4.57;3.08;;;;;;;11.27;50.42;101153.03;5039679;28;20042;-46
2024/01/25 03:22:17;;;;;;;6.28;5.32;;;;;;;11.42;50.25;101135.53;5038640;28;20360;-45
2024/01/25 03:24:42;;;;;;;1.27;0.80;;;;;;;11.35;50.64;101144.72;5037784;28;20517;-45
2024/01/25 03:27:13;;;;;;;0.77;0.77;;;;;;;11.32;50.14;101158.03;5036814;28;20033;-46
2024/01/25 03:29:40;;;;;;;1.08;1.08;;;;;;;11.36;50.06;101149.03;5037338;28;20312;-46
2024/01/25 03:32:06;;;;;;;12.25;7.20;;;;;;;11.22;50.71;101178.75;5037044;28;20040;-45
2024/01/25 03:34:31;;;;;;;2.60;1.47;;;;;;;11.22;50.34;101148.03;5039923;28;20025;-44
2024/01/25 03:36:57;;;;;;;1.35;1.05;;;;;;;11.24;50.91;101140.03;5032916;28;20322;-46
2024/01/25 03:39:22;;;;;;;3.10;2.72;;;;;;;11.32;51.25;101210.72;5035003;28;20035;-45
2024/01/25 03:41:47;;;;;;;6.97;3.63;;;;;;;11.16;50.07;101185.22;5038308;28;20036;-47
2024/01/25 03:44:13;;;;;;;8.03;6.00;;;;;;;11.22;50.34;101227.03;5039184;28;20036;-47
2024/01/25 03:46:38;;;;;;;11.70;10.03;;;;;;;11.19;50.25;101173.69;5034306;28;20725;-47
2024/01/25 03:49:04;;;;;;;2.27;2.13;;;;;;;11.31;50.55;101172.16;5036853;28;20278;-45
2024/01/25 03:51:29;;;;;;;1.90;1.80;;;;;;;11.28;49.97;101174.00;5039258;28;20301;-46
2024/01/25 03:53:55;;;;;;;4.30;3.40;;;;;;;11.26;50.35;101161.88;5023276;28;20655;-47
2024/01/25 03:56:22;;;;;;;8.48;4.88;;;;;;;11.20;50.10;101177.97;5052939;28;20291;-44
2024/01/25 03:58:48;;;;;;;7.93;6.10;;;;;;;11.19;51.57;101178.94;5042563;28;20037;-44
2024/01/25 04:01:13;;;;;;;7.53;2.75;;;;;;;11.24;50.42;101192.69;5043048;28;20073;-45
2024/01/25 04:03:39;;;;;;;2.30;1.70;;;;;;;11.12;50.47;101178.41;5032090;28;20484;-45
2024/01/25 04:06:04;;;;;;;2.30;1.02;;;;;;;11.19;50.52;101184.22;5032655;28;20060;-47
2024/01/25 04:08:30;;;;;;;10.73;1.70;;;;;;;11.25;50.85;101218.97;5037431;28;20127;-45
2024/01/25 04:10:55;;;;;;;3.27;1.90;;;;;;;11.17;50.80;101210.63;5038814;28;20044;-43
2024/01/25 04:13:20;;;;;;;5.85;2.03;;;;;;;11.10;51.58;101198.72;5033754;28;20773;-48
2024/01/25 04:15:46;;;;;;;4.60;2.10;;;;;;;11.17;50.92;101160.56;5036852;28;20029;-43
2024/01/25 04:18:11;;;;;;;8.25;5.80;;;;;;;11.06;49.92;101186.63;5039228;28;20756;-48
2024/01/25 04:20:36;;;;;;;5.78;2.15;;;;;;;10.97;50.21;101201.13;5039879;28;20037;-46
2024/01/25 04:23:02;;;;;;;4.32;3.92;;;;;;;11.11;50.06;101198.63;5035174;28;20037;-47
2024/01/25 04:25:27;;;;;;;5.55;2.45;;;;;;;11.14;50.24;101202.88;5033614;28;20087;-44
2024/01/25 04:27:52;;;;;;;22.10;13.67;;;;;;;11.06;50.06;101208.53;5036527;28;20095;-49
2024/01/25 04:30:18;;;;;;;6.63;2.40;;;;;;;11.12;51.08;101207.38;5034906;28;20280;-44
2024/01/25 04:32:46;;;;;;;4.07;2.80;;;;;;;11.26;50.21;101223.31;5034990;28;20468;-39
2024/01/25 04:35:11;;;;;;;6.80;2.90;;;;;;;11.14;51.20;101223.94;5054515;28;20047;-39
2024/01/25 04:37:37;;;;;;;4.28;2.08;;;;;;;11.13;51.24;101243.31;5037902;28;20017;-39
2024/01/25 04:40:03;;;;;;;8.30;1.83;;;;;;;11.10;50.92;101254.88;5036740;28;20770;-37
2024/01/25 04:42:28;;;;;;;6.43;4.97;;;;;;;11.00;50.48;101235.22;5031451;28;20041;-38
2024/01/25 04:44:53;;;;;;;3.75;1.63;;;;;;;11.15;50.33;101236.19;5021698;28;20036;-38
2024/01/25 04:47:19;;;;;;;5.63;3.13;;;;;;;11.18;50.40;101267.63;5039521;28;20040;-38
2024/01/25 04:49:44;;;;;;;3.83;1.35;;;;;;;11.12;50.49;101247.75;5040128;28;20040;-37
2024/01/25 04:52:09;;;;;;;12.60;1.90;;;;;;;11.03;50.88;101260.53;5038913;28;20021;-38
2024/01/25 04:54:35;;;;;;;5.10;2.00;;;;;;;10.96;50.57;101244.19;5038431;28;20294;-37
2024/01/25 04:57:00;;;;;;;3.45;0.75;;;;;;;11.02;50.81;101253.56;5035825;28;20029;-38
2024/01/25 04:59:26;;;;;;;7.43;2.10;;;;;;;10.93;50.24;101271.53;5042773;28;20052;-37
2024/01/25 05:01:53;;;;;;;4.57;1.83;;;;;;;11.11;50.36;101250.47;5017470;28;20055;-46
2024/01/25 05:04:19;;;;;;;5.80;2.03;;;;;;;10.96;50.31;101252.09;5035949;28;20025;-45
2024/01/25 05:06:44;;;;;;;7.95;2.95;;;;;;;11.04;50.23;101254.34;5052819;28;20032;-46
2024/01/25 05:09:09;;;;;;;6.57;2.17;;;;;;;11.05;51.06;101256.03;5036534;28;20035;-49
2024/01/25 05:11:40;;;;;;;7.70;4.45;;;;;;;11.08;50.62;101262.00;5036465;28;20290;-48
2024/01/25 05:14:06;;;;;;;6.07;4.50;;;;;;;10.91;50.74;101276.03;5037339;28;20033;-45
2024/01/25 05:16:32;;;;;;;9.93;5.18;;;;;;;11.00;50.41;101298.41;5037659;28;20056;-47
2024/01/25 05:18:57;;;;;;;4.22;2.53;;;;;;;10.95;50.70;101293.38;5037518;28;21882;-50
2024/01/25 05:21:22;;;;;;;1.97;1.63;;;;;;;11.01;50.33;101276.41;5038128;28;20041;-43
2024/01/25 05:23:48;;;;;;;3.73;3.20;;;;;;;11.13;50.18;101281.06;5036680;28;20299;-45
2024/01/25 05:26:15;;;;;;;4.72;3.65;;;;;;;11.14;50.12;101292.44;5035641;28;20681;-46
2024/01/25 05:28:40;;;;;;;2.28;1.95;;;;;;;11.09;50.42;101305.00;5031401;28;20519;-48
2024/01/25 05:31:09;;;;;;;2.90;2.33;;;;;;;11.10;50.24;101286.47;5037169;28;20033;-47
2024/01/25 05:33:34;;;;;;;4.13;3.67;;;;;;;11.04;50.47;101309.63;5035905;28;20329;-47
2024/01/25 05:36:00;;;;;;;1.60;0.87;;;;;;;11.14;50.80;101292.44;5038291;28;20057;-46
2024/01/25 05:38:25;;;;;;;2.57;2.37;;;;;;;11.27;50.67;101304.03;5034497;28;20868;-46
2024/01/25 05:40:50;;;;;;;9.23;3.97;;;;;;;11.10;50.69;101298.81;5038407;28;20291;-46
2024/01/25 05:43:15;;;;;;;13.52;7.60;;;;;;;11.15;50.36;101309.94;5032038;28;20295;-47
2024/01/25 05:45:41;;;;;;;8.63;4.15;;;;;;;11.09;50.76;101312.91;5036407;28;20127;-48
2024/01/25 05:48:06;;;;;;;5.07;1.60;;;;;;;11.08;50.90;101321.72;5037310;28;20515;-45
2024/01/25 05:50:33;;;;;;;4.95;2.13;;;;;;;10.96;50.75;101342.50;5034473;28;20040;-45
2024/01/25 05:52:58;;;;;;;2.20;1.42;;;;;;;11.13;51.07;101335.50;5033347;28;20037;-45
2024/01/25 05:55:23;;;;;;;1.50;0.73;;;;;;;11.13;50.90;101324.97;5035202;28;20025;-46
2024/01/25 05:57:48;;;;;;;2.63;1.80;;;;;;;11.13;49.64;101328.47;5050124;28;20283;-46
2024/01/25 06:00:15;;;;;;;7.90;3.33;;;;;;;11.02;51.04;101325.53;5038921;28;20349;-45
2024/01/25 06:02:40;;;;;;;2.75;1.10;;;;;;;11.14;50.00;101350.38;5051993;28;20288;-45
2024/01/25 06:05:05;;;;;;;5.53;1.80;;;;;;;11.20;50.50;101344.81;5039189;28;20091;-45
2024/01/25 06:07:31;;;;;;;15.98;2.60;;;;;;;11.09;51.11;101374.31;5036791;28;20025;-46
2024/01/25 06:09:56;;;;;;;3.23;1.90;;;;;;;11.11;50.64;101346.13;5034198;28;20052;-45
2024/01/25 06:12:21;;;;;;;6.82;3.70;;;;;;;11.06;50.55;101347.28;5049030;28;20282;-45
2024/01/25 06:14:47;;;;;;;2.35;0.80;;;;;;;11.09;50.42;101362.94;5041180;28;20115;-45
2024/01/25 06:17:12;;;;;;;3.53;2.78;;;;;;;11.17;50.17;101355.50;5038821;28;20036;-46
2024/01/25 06:19:37;;;;;;;5.30;1.67;;;;;;;11.17;49.40;101349.38;5036080;28;20083;-45
2024/01/25 06:22:03;;;;;;;4.73;1.50;;;;;;;11.16;50.35;101364.31;5041805;28;20288;-46
2024/01/25 06:24:28;;;;;;;12.02;1.38;;;;;;;11.22;49.49;101364.03;5040723;28;20413;-46
2024/01/25 06:26:54;;;;;;;2.70;0.95;;;;;;;11.17;50.17;101365.19;5040026;28;20037;-46
2024/01/25 06:29:19;;;;;;;6.80;2.83;;;;;;;11.04;50.22;101380.75;5036632;28;20025;-46
2024/01/25 06:31:45;;;;;;;8.93;2.08;;;;;;;11.17;50.21;101391.53;5040650;28;20119;-48
2024/01/25 06:34:10;;;;;;;8.93;2.55;;;;;;;11.02;50.09;101422.09;5041815;28;20072;-46
2024/01/25 06:36:36;;;;;;;7.90;3.45;;;;;;;11.06;49.57;101394.69;5043669;28;20040;-47
2024/01/25 06:39:01;;;;;;;4.88;1.80;;;;;;;11.01;50.26;101383.50;5035823;28;20037;-48
2024/01/25 06:41:26;;;;;;;4.28;1.42;;;;;;;11.18;50.54;101383.53;5022911;28;20036;-44
2024/01/25 06:43:52;;;;;;;11.93;2.17;;;;;;;11.07;50.19;101396.41;5038899;28;20159;-47
2024/01/25 06:46:17;;;;;;;10.90;2.38;;;;;;;11.01;50.03;101404.59;5036988;28;20291;-46
2024/01/25 06:48:43;;;;;;;4.70;2.00;;;;;;;11.03;50.00;101447.50;5036492;28;20033;-44
2024/01/25 06:51:08;;;;;;;4.20;1.92;;;;;;;11.07;49.93;101412.19;5039449;28;20056;-45
2024/01/25 06:53:33;;;;;;;4.15;1.50;;;;;;;11.12;50.22;101420.69;5039392;28;20032;-46
2024/01/25 06:55:59;;;;;;;7.90;1.40;;;;;;;11.12;50.10;101437.38;5038369;28;20538;-47
2024/01/25 06:58:24;;;;;;;6.95;1.77;;;;;;;11.07;51.37;101434.09;5034912;28;20478;-47
2024/01/25 07:00:49;;;;;;;3.33;1.33;;;;;;;11.14;49.90;101432.03;5036567;28;25700;-45
2024/01/25 07:03:15;;;;;;;4.63;2.00;;;;;;;11.05;50.20;101443.84;5035241;28;20119;-44
2024/01/25 07:05:41;;;;;;;13.68;2.45;;;;;;;11.10;50.85;101459.47;5036224;28;20649;-45
2024/01/25 07:08:08;;;;;;;3.80;1.70;;;;;;;11.22;50.73;101460.63;5036564;28;20075;-46
2024/01/25 07:10:34;;;;;;;7.85;2.10;;;;;;;11.11;50.51;101469.91;5036564;28;20025;-45
2024/01/25 07:12:59;;;;;;;3.88;1.83;;;;;;;11.13;50.18;101522.50;5035530;28;20041;-45
2024/01/25 07:15:25;;;;;;;2.60;0.63;;;;;;;11.12;50.95;101483.91;5039762;28;20082;-46
2024/01/25 07:17:50;;;;;;;3.92;1.65;;;;;;;11.02;50.67;101487.94;5031441;28;20406;-45
2024/01/25 07:20:15;;;;;;;9.00;1.63;;;;;;;11.14;50.18;101495.25;5033181;28;20033;-46
2024/01/25 07:22:41;;;;;;;2.55;0.68;;;;;;;11.16;50.63;101484.66;5032465;28;20295;-46
2024/01/25 07:25:06;;;;;;;3.90;1.77;;;;;;;10.91;50.48;101523.53;5037362;28;20028;-46
2024/01/25 07:27:32;;;;;;;6.57;4.45;;;;;;;11.21;50.73;101504.56;5035324;28;20040;-46
2024/01/25 07:29:57;;;;;;;3.03;0.75;;;;;;;11.17;50.92;101503.00;5036402;28;20133;-45
2024/01/25 07:32:24;;;;;;;3.03;1.00;;;;;;;11.03;51.91;101510.72;5038387;28;20037;-47
2024/01/25 07:34:49;;;;;;;4.60;2.22;;;;;;;11.14;51.36;101505.78;5038796;28;20040;-47
2024/01/25 07:37:15;;;;;;;3.65;1.05;;;;;;;10.89;51.11;101528.00;5036920;28;20033;-46
2024/01/25 07:39:41;;;;;;;3.40;1.35;;;;;;;11.05;51.51;101517.59;5038739;28;20041;-46
2024/01/25 07:42:06;;;;;;;1.50;0.63;;;;;;;10.93;50.86;101540.13;5037977;28;20028;-45
2024/01/25 07:44:31;;;;;;;8.02;1.42;;;;;;;10.93;51.94;101548.03;5041255;28;20443;-45
2024/01/25 07:46:57;;;;;;;2.72;1.13;;;;;;;10.94;51.85;101533.94;5025850;28;20083;-46
2024/01/25 07:49:22;;;;;;;2.40;0.60;;;;;;;10.99;52.16;101533.72;5037567;28;20064;-46
2024/01/25 07:51:48;;;;;;;2.22;0.68;;;;;;;11.04;51.53;101547.50;5039432;28;20102;-49
2024/01/25 07:54:14;;;;;;;4.00;1.77;;;;;;;10.97;51.68;101546.94;5044708;28;20037;-47
2024/01/25 07:56:39;;;;;;;3.03;1.75;;;;;;;10.90;52.05;101569.22;5034130;28;20025;-47
2024/01/25 07:59:05;;;;;;;5.50;1.75;;;;;;;10.84;51.66;101543.16;5036147;28;20042;-46
2024/01/25 08:01:30;;;;;;;5.07;2.72;;;;;;;11.48;50.90;101554.22;5041560;28;20123;-45
2024/01/25 08:03:59;;;;;;;2.70;0.77;;;;;;;10.93;51.38;101558.56;5038989;28;20068;-45
2024/01/25 08:06:26;;;;;;;8.68;2.13;;;;;;;10.76;51.94;101596.16;5037181;28;20124;-45
2024/01/25 08:08:51;;;;;;;3.75;2.03;;;;;;;10.92;52.19;101570.00;5034366;28;20783;-45
2024/01/25 08:11:19;;;;;;;8.60;5.60;;;;;;;10.89;52.09;101545.59;5040344;28;20033;-46
2024/01/25 08:13:44;;;;;;;17.27;15.65;;;;;;;10.81;52.93;101567.03;5038180;28;20035;-46
2024/01/25 08:16:10;;;;;;;8.55;7.95;;;;;;;10.87;52.92;101574.63;5035567;28;20037;-46
2024/01/25 08:18:36;;;;;;;8.05;7.45;;;;;;;10.83;52.64;101588.84;5039486;28;20052;-45
2024/01/25 08:21:01;;;;;;;7.33;6.70;;;;;;;10.84;52.30;101593.19;5018711;28;20057;-45
2024/01/25 08:23:26;;;;;;;9.17;8.33;;;;;;;10.77;53.34;101604.94;5040559;28;20282;-45
2024/01/25 08:25:51;;;;;;;22.83;20.57;;;;;;;10.88;53.35;101614.97;5039505;28;20349;-45
2024/01/25 08:28:17;;;;;;;24.40;22.17;;;;;;;10.83;53.29;101620.44;5039691;28;20263;-45
2024/01/25 08:30:42;;;;;;;21.63;16.40;;;;;;;10.78;52.66;101619.81;5034694;28;20288;-46
2024/01/25 08:33:07;;;;;;;12.00;11.13;;;;;;;10.62;52.88;101630.13;5039038;28;20386;-50
2024/01/25 08:35:33;;;;;;;8.20;7.53;;;;;;;10.85;52.94;101623.00;5036612;28;20290;-45
2024/01/25 08:37:58;;;;;;;15.18;13.57;;;;;;;10.92;53.29;101612.13;5034601;28;20122;-45
2024/01/25 08:40:23;;;;;;;19.02;11.82;;;;;;;10.80;52.59;101631.97;5041861;28;20047;-47
2024/01/25 08:42:48;;;;;;;10.97;8.70;;;;;;;10.80;52.84;101637.22;5033731;28;20051;-45
2024/01/25 08:45:14;;;;;;;25.08;22.65;;;;;;;10.82;53.07;101661.72;5055950;28;20654;-45
2024/01/25 08:47:39;;;;;;;12.02;10.82;;;;;;;10.73;52.87;101640.19;5037548;28;20036;-45
2024/01/25 08:50:10;;;;;;;4.78;4.15;;;;;;;10.72;53.29;101680.59;5036776;28;20025;-46
2024/01/25 08:52:35;;;;;;;18.38;12.68;;;;;;;10.79;53.10;101653.09;5037545;28;20044;-45
2024/01/25 08:55:00;;;;;;;5.57;4.13;;;;;;;10.80;52.39;101671.44;5039344;28;20387;-46
2024/01/25 08:57:26;;;;;;;21.40;15.27;;;;;;;10.79;52.69;101656.56;5029057;28;20052;-45
2024/01/25 08:59:52;;;;;;;6.95;5.22;;;;;;;10.56;53.25;101681.25;5040647;28;20757;-45
2024/01/25 09:02:18;;;;;;;13.48;9.35;;;;;;;10.65;53.03;101648.44;5047395;28;20032;-45
2024/01/25 09:04:44;;;;;;;7.13;6.45;;;;;;;10.76;53.67;101661.13;5049489;28;20029;-46
2024/01/25 09:07:09;;;;;;;6.93;6.37;;;;;;;10.63;52.88;101666.94;5044632;28;20031;-45
2024/01/25 09:09:34;;;;;;;9.45;7.65;;;;;;;10.66;53.08;101693.09;5043624;28;20295;-46
2024/01/25 09:12:00;;;;;;;7.70;7.00;;;;;;;10.62;52.73;101654.69;5051107;28;20566;-45
2024/01/25 09:14:25;;;;;;;9.82;8.85;;;;;;;10.83;52.19;101688.88;5052566;28;20028;-45
2024/01/25 09:16:50;;;;;;;5.93;5.43;;;;;;;10.71;52.40;101685.03;5042780;28;20040;-45
2024/01/25 09:19:16;;;;;;;8.70;6.55;;;;;;;10.71;52.64;101668.38;5047297;28;20299;-45
2024/01/25 09:21:41;;;;;;;7.45;3.90;;;;;;;10.78;52.42;101681.19;5048362;28;20025;-46
2024/01/25 09:24:07;;;;;;;4.23;1.27;;;;;;;10.58;52.50;101689.94;5044685;28;20499;-45
2024/01/25 09:26:32;;;;;;;4.57;1.42;;;;;;;10.71;52.88;101681.53;5049554;28;20259;-45
2024/01/25 09:28:58;;;;;;;5.75;2.13;;;;;;;10.69;52.59;101686.88;5048442;28;20135;-45
2024/01/25 09:31:23;;;;;;;7.07;5.13;;;;;;;10.65;51.76;101691.41;5051031;28;20510;-45
2024/01/25 09:33:48;;;;;;;6.50;2.03;;;;;;;10.83;52.12;101720.47;5048074;28;20302;-45
2024/01/25 09:36:13;;;;;;;4.53;1.25;;;;;;;10.89;52.25;101688.63;5040525;28;20495;-45
2024/01/25 09:38:39;;;;;;;4.60;1.20;;;;;;;10.80;52.11;101718.00;5048183;28;20033;-45
2024/01/25 09:41:04;;;;;;;3.72;0.47;;;;;;;10.82;51.97;101706.47;5044881;28;20021;-45
2024/01/25 09:43:30;;;;;;;5.57;1.57;;;;;;;10.93;52.04;101721.81;5043621;28;20050;-47
2024/01/25 09:45:55;;;;;;;4.65;0.88;;;;;;;10.87;52.17;101722.06;5048976;28;20283;-45
2024/01/25 09:48:21;;;;;;;5.00;1.25;;;;;;;10.85;51.46;101710.75;5049368;28;20035;-45
2024/01/25 09:50:48;;;;;;;6.15;2.08;;;;;;;10.87;51.42;101716.81;5048716;28;20029;-45
2024/01/25 09:53:20;;;;;;;3.88;0.98;;;;;;;10.91;52.16;101710.50;5046977;28;20234;-45
2024/01/25 09:55:49;;;;;;;12.20;4.30;;;;;;;10.90;52.30;101729.84;5048699;28;20116;-45
2024/01/25 09:58:15;;;;;;;3.72;1.52;;;;;;;11.01;52.12;101728.50;5052200;28;20021;-45
2024/01/25 10:00:42;;;;;;;3.65;2.25;;;;;;;10.94;52.22;101734.06;5050006;28;20450;-45
2024/01/25 10:03:09;;;;;;;3.00;0.20;;;;;;;11.05;52.36;101735.34;5045353;28;20025;-45
2024/01/25 10:05:34;;;;;;;4.70;2.05;;;;;;;11.11;52.37;101750.91;5051976;28;20036;-45
2024/01/25 10:08:01;;;;;;;0.60;0.38;;;;;;;10.97;52.18;101754.13;5049967;28;20025;-44
2024/01/25 10:10:26;;;;;;;18.80;3.03;;;;;;;11.04;53.39;101741.53;5036988;28;20495;-46
2024/01/25 10:12:55;;;;;;;4.65;1.80;;;;;;;10.96;52.12;101748.03;5049039;28;20043;-47
2024/01/25 10:15:20;;;;;;;1.02;0.93;;;;;;;10.88;52.08;101734.31;5050130;28;20061;-45
2024/01/25 10:17:45;;;;;;;2.00;0.55;;;;;;;10.97;52.29;101749.69;5050119;28;20128;-45
2024/01/25 10:20:14;;;;;;;0.77;0.70;;;;;;;11.01;52.33;101754.84;5038036;28;20024;-49
2024/01/25 10:22:39;;;;;;;6.45;2.33;;;;;;;11.03;52.06;101747.72;5048886;28;20152;-48
2024/01/25 10:25:12;;;;;;;4.75;1.50;;;;;;;10.94;52.67;101780.59;5048539;28;20044;-45
2024/01/25 10:27:37;;;;;;;4.70;1.35;;;;;;;10.99;52.46;101757.56;5042197;28;20048;-46
2024/01/25 10:30:04;;;;;;;12.87;8.77;;;;;;;10.89;52.73;101765.00;5047841;28;20542;-43
2024/01/25 10:32:29;;;;;;;5.60;3.47;;;;;;;11.06;52.61;101763.41;5050780;28;20266;-46
2024/01/25 10:34:55;;;;;;;6.95;3.70;;;;;;;10.85;52.55;101781.81;5047511;28;20042;-48
2024/01/25 10:37:21;;;;;;;2.47;1.95;;;;;;;10.94;52.78;101797.25;5049040;28;20036;-45
2024/01/25 10:39:47;;;;;;;3.55;3.25;;;;;;;11.06;53.23;101779.22;5047422;28;20040;-47
2024/01/25 10:42:13;;;;;;;2.72;2.53;;;;;;;10.98;52.58;101772.47;4997322;28;20388;-47
2024/01/25 10:44:38;;;;;;;8.35;2.33;;;;;;;10.82;53.04;101803.00;5045098;28;20518;-47
2024/01/25 10:47:06;;;;;;;3.40;1.15;;;;;;;11.06;52.74;101808.19;5039401;28;20057;-48
2024/01/25 10:49:32;;;;;;;3.95;2.10;;;;;;;10.88;52.39;101802.78;5048068;28;20075;-48
2024/01/25 10:51:58;;;;;;;6.03;2.22;;;;;;;11.05;53.34;101794.13;5044260;28;20412;-47
2024/01/25 10:54:24;;;;;;;2.33;0.50;;;;;;;10.92;52.62;101798.22;5042368;28;20033;-46
2024/01/25 10:56:49;;;;;;;1.25;0.32;;;;;;;10.95;53.15;101793.72;5042834;28;20033;-48
2024/01/25 10:59:16;;;;;;;5.87;1.20;;;;;;;10.79;53.21;101798.75;5046852;28;20017;-48
2024/01/25 11:01:45;;;;;;;2.83;1.35;;;;;;;10.93;53.74;101795.53;5044291;28;20290;-46
2024/01/25 11:04:16;;;;;;;3.05;0.95;;;;;;;11.00;53.63;101798.78;5042664;28;20146;-45
2024/01/25 11:06:41;;;;;;;2.28;0.60;;;;;;;11.02;52.90;101810.09;5043495;28;20037;-48
2024/01/25 11:09:08;;;;;;;7.05;2.50;;;;;;;10.96;53.36;101815.63;5040787;28;20029;-46
2024/01/25 11:11:36;;;;;;;2.85;1.17;;;;;;;10.85;53.71;101810.78;5025825;28;20039;-47
2024/01/25 11:14:02;;;;;;;2.65;0.80;;;;;;;10.87;53.77;101805.47;5038855;28;20028;-47
2024/01/25 11:16:33;;;;;;;1.80;1.17;;;;;;;10.88;54.73;101820.38;5045496;28;20776;-47